createdAt,value
2023-01-09T00:01:40.575Z,96.76
2023-01-09T00:04:08.336Z,96.55
2023-01-09T00:06:35.885Z,96.76
2023-01-09T00:09:04.083Z,96.91
2023-01-09T00:11:31.255Z,97.35
2023-01-09T00:14:00.719Z,97.90
2023-01-09T00:16:27.782Z,97.13
2023-01-09T00:18:57.601Z,97.37
2023-01-09T00:21:28.987Z,96.93
2023-01-09T00:23:55.840Z,96.20
2023-01-09T00:26:23.032Z,95.79
2023-01-09T00:28:52.108Z,95.20
2023-01-09T00:31:20.224Z,95.00
2023-01-09T00:34:07.329Z,94.71
2023-01-09T00:36:36.873Z,95.58
2023-01-09T00:39:05.154Z,94.93
2023-01-09T00:41:40.342Z,96.44
2023-01-09T00:44:18.221Z,96.89
2023-01-09T00:46:53.449Z,98.27
2023-01-09T00:49:21.155Z,97.80
2023-01-09T00:51:51.704Z,97.87
2023-01-09T00:54:20.098Z,99.47
2023-01-09T00:56:47.885Z,98.08
2023-01-09T00:59:14.851Z,97.45
2023-01-09T01:01:42.568Z,97.08
2023-01-09T01:04:30.543Z,97.61
2023-01-09T01:07:16.282Z,97.84
2023-01-09T01:09:43.182Z,97.55
2023-01-09T01:12:10.104Z,98.55
2023-01-09T01:14:38.729Z,99.98
2023-01-09T01:17:07.206Z,100.00
2023-01-09T01:19:37.674Z,100.00
2023-01-09T01:22:07.257Z,100.00
2023-01-09T01:24:36.686Z,99.64
2023-01-09T01:27:03.689Z,99.26
2023-01-09T01:29:30.860Z,100.00
2023-01-09T01:32:00.181Z,100.00
2023-01-09T01:34:29.370Z,99.77
2023-01-09T01:36:56.517Z,99.57
2023-01-09T01:39:23.347Z,100.00
2023-01-09T01:41:50.257Z,98.86
2023-01-09T01:45:06.975Z,99.18
2023-01-09T01:47:38.697Z,97.93
2023-01-09T01:50:26.281Z,98.13
2023-01-09T01:53:01.192Z,98.45
2023-01-09T01:55:30.741Z,98.75
2023-01-09T01:58:05.573Z,99.51
2023-01-09T02:00:38.373Z,99.56
2023-01-09T02:03:07.744Z,97.80
2023-01-09T02:05:40.875Z,97.61
2023-01-09T02:08:09.225Z,96.80
2023-01-09T02:10:40.658Z,95.65
2023-01-09T02:13:15.750Z,95.46
2023-01-09T02:15:45.584Z,95.65
2023-01-09T02:18:46.977Z,97.09
2023-01-09T02:21:33.102Z,96.10
2023-01-09T02:24:13.257Z,96.72
2023-01-09T02:27:24.897Z,96.84
2023-01-09T02:30:18.828Z,97.17
2023-01-09T02:33:18.231Z,97.26
2023-01-09T02:36:06.618Z,96.54
2023-01-09T02:38:59.308Z,97.87
2023-01-09T02:42:03.956Z,98.79
2023-01-09T02:44:34.466Z,98.63
2023-01-09T02:47:08.799Z,98.18
2023-01-09T02:49:39.046Z,98.04
2023-01-09T02:52:52.707Z,96.44
2023-01-09T02:56:01.397Z,97.80
2023-01-09T02:59:13.508Z,96.25
2023-01-09T03:02:23.982Z,95.73
2023-01-09T03:05:14.008Z,95.57
2023-01-09T03:08:04.368Z,94.84
2023-01-09T03:10:57.139Z,95.14
2023-01-09T03:13:26.915Z,95.51
2023-01-09T03:15:58.094Z,95.27
2023-01-09T03:18:27.346Z,95.22
2023-01-09T03:20:55.266Z,95.12
2023-01-09T03:23:22.392Z,94.67
2023-01-09T03:25:51.617Z,96.18
2023-01-09T03:28:31.896Z,94.83
2023-01-09T03:31:01.043Z,95.93
2023-01-09T03:33:30.126Z,96.83
2023-01-09T03:35:59.369Z,95.84
2023-01-09T03:38:29.365Z,95.47
2023-01-09T03:40:56.225Z,95.05
2023-01-09T03:43:25.826Z,95.58
2023-01-09T03:45:52.804Z,95.06
2023-01-09T03:48:19.735Z,94.50
2023-01-09T03:50:52.563Z,96.09
2023-01-09T03:53:22.370Z,96.22
2023-01-09T03:55:52.723Z,95.98
2023-01-09T03:58:20.674Z,95.94
2023-01-09T04:00:53.964Z,95.50
2023-01-09T04:03:23.392Z,96.45
2023-01-09T04:05:51.508Z,96.90
2023-01-09T04:08:18.892Z,97.44
2023-01-09T04:10:54.811Z,97.59
2023-01-09T04:13:24.356Z,96.91
2023-01-09T04:15:51.230Z,97.98
2023-01-09T04:18:20.811Z,97.68
2023-01-09T04:20:48.517Z,97.74
2023-01-09T04:23:20.562Z,97.51
2023-01-09T04:25:47.667Z,99.65
2023-01-09T04:28:14.692Z,100.00
2023-01-09T04:30:41.524Z,99.58
2023-01-09T04:33:10.733Z,100.00
2023-01-09T04:35:37.721Z,100.00
2023-01-09T04:38:04.717Z,100.00
2023-01-09T04:40:33.693Z,100.00
2023-01-09T04:43:05.263Z,100.00
2023-01-09T04:45:32.157Z,100.00
2023-01-09T04:47:59.050Z,100.00
2023-01-09T04:50:26.190Z,100.00
2023-01-09T04:52:53.197Z,100.00
2023-01-09T04:55:20.145Z,100.00
2023-01-09T04:57:47.047Z,100.00
2023-01-09T05:00:14.611Z,100.00
2023-01-09T05:02:41.920Z,100.00
2023-01-09T05:05:12.162Z,100.00
2023-01-09T05:07:41.438Z,100.00
2023-01-09T05:10:13.048Z,100.00
2023-01-09T05:12:40.148Z,100.00
2023-01-09T05:15:11.238Z,100.00
2023-01-09T05:17:38.230Z,100.00
2023-01-09T05:20:05.607Z,100.00
2023-01-09T05:22:32.775Z,100.00
2023-01-09T05:25:02.267Z,100.00
2023-01-09T05:27:30.485Z,100.00
2023-01-09T05:29:57.347Z,100.00
2023-01-09T05:32:24.288Z,100.00
2023-01-09T05:34:51.298Z,100.00
2023-01-09T05:37:18.206Z,100.00
2023-01-09T05:39:45.420Z,100.00
2023-01-09T05:42:16.807Z,100.00
2023-01-09T05:44:46.351Z,100.00
2023-01-09T05:47:15.817Z,100.00
2023-01-09T05:49:42.841Z,100.00
2023-01-09T05:52:09.815Z,100.00
2023-01-09T05:54:36.687Z,100.00
2023-01-09T05:57:03.638Z,100.00
2023-01-09T05:59:30.596Z,100.00
2023-01-09T06:01:57.738Z,100.00
2023-01-09T06:04:25.647Z,100.00
2023-01-09T06:06:57.322Z,100.00
2023-01-09T06:09:27.323Z,100.00
2023-01-09T06:11:54.902Z,100.00
2023-01-09T06:14:21.894Z,100.00
2023-01-09T06:16:49.084Z,100.00
2023-01-09T06:19:16.240Z,100.00
2023-01-09T06:21:43.200Z,100.00
2023-01-09T06:24:10.132Z,100.00
2023-01-09T06:26:36.974Z,100.00
2023-01-09T06:29:08.936Z,100.00
2023-01-09T06:31:35.817Z,100.00
2023-01-09T06:34:05.173Z,100.00
2023-01-09T06:36:31.999Z,100.00
2023-01-09T06:38:58.859Z,100.00
2023-01-09T06:41:25.780Z,100.00
2023-01-09T06:43:52.720Z,100.00
2023-01-09T06:46:19.649Z,100.00
2023-01-09T06:48:46.647Z,100.00
2023-01-09T06:51:13.721Z,100.00
2023-01-09T06:53:40.665Z,100.00
2023-01-09T06:56:10.594Z,98.86
2023-01-09T06:58:37.615Z,99.15
2023-01-09T07:01:04.838Z,99.10
2023-01-09T07:03:34.787Z,98.47
2023-01-09T07:06:01.665Z,99.48
2023-01-09T07:08:31.124Z,99.38
2023-01-09T07:10:58.127Z,99.93
2023-01-09T07:13:29.535Z,100.00
2023-01-09T07:15:56.422Z,100.00
2023-01-09T07:18:23.423Z,100.00
2023-01-09T07:20:50.704Z,100.00
2023-01-09T07:23:18.826Z,100.00
2023-01-09T07:25:49.317Z,100.00
2023-01-09T07:28:16.241Z,100.00
2023-01-09T07:30:43.360Z,99.87
2023-01-09T07:33:12.708Z,99.23
2023-01-09T07:35:42.159Z,99.81
2023-01-09T07:38:11.367Z,100.00
2023-01-09T07:40:40.859Z,100.00
2023-01-09T07:43:12.297Z,100.00
2023-01-09T07:45:44.314Z,100.00
2023-01-09T07:48:11.247Z,100.00
2023-01-09T07:50:38.196Z,100.00
2023-01-09T07:53:05.382Z,99.98
2023-01-09T07:55:32.302Z,99.76
2023-01-09T07:58:01.793Z,100.00
2023-01-09T08:00:29.203Z,99.69
2023-01-09T08:02:56.309Z,98.60
2023-01-09T08:05:25.376Z,98.43
2023-01-09T08:07:52.495Z,97.58
2023-01-09T08:10:20.161Z,98.34
2023-01-09T08:12:51.257Z,98.88
2023-01-09T08:15:20.668Z,97.92
2023-01-09T08:17:52.203Z,97.97
2023-01-09T08:20:19.363Z,98.41
2023-01-09T08:22:50.632Z,99.62
2023-01-09T08:25:18.445Z,98.62
2023-01-09T08:27:45.821Z,97.36
2023-01-09T08:30:16.499Z,98.72
2023-01-09T08:32:48.118Z,97.15
2023-01-09T08:35:15.060Z,97.22
2023-01-09T08:37:45.596Z,96.57
2023-01-09T08:40:16.252Z,97.03
2023-01-09T08:43:04.422Z,96.69
2023-01-09T08:45:53.235Z,95.49
2023-01-09T08:48:20.289Z,93.52
2023-01-09T08:50:47.147Z,91.78
2023-01-09T08:53:15.371Z,90.17
2023-01-09T08:55:45.323Z,88.94
2023-01-09T08:58:12.547Z,89.85
2023-01-09T09:00:39.519Z,90.44
2023-01-09T09:03:08.884Z,89.16
2023-01-09T09:05:35.785Z,87.51
2023-01-09T09:08:03.623Z,87.81
2023-01-09T09:10:31.001Z,86.92
2023-01-09T09:13:01.810Z,87.73
2023-01-09T09:15:30.246Z,87.03
2023-01-09T09:18:05.817Z,85.37
2023-01-09T09:20:36.799Z,79.32
2023-01-09T09:23:05.445Z,77.59
2023-01-09T09:25:32.434Z,78.52
2023-01-09T09:28:01.805Z,79.57
2023-01-09T09:30:28.841Z,81.67
2023-01-09T09:32:56.142Z,82.71
2023-01-09T09:35:26.027Z,83.16
2023-01-09T09:37:59.782Z,83.75
2023-01-09T09:41:29.049Z,89.40
2023-01-09T09:44:33.476Z,90.81
2023-01-09T09:47:41.603Z,90.44
2023-01-09T09:50:21.395Z,90.96
2023-01-09T09:53:30.872Z,91.42
2023-01-09T09:55:58.225Z,89.80
2023-01-09T09:58:41.244Z,90.58
2023-01-09T10:01:10.382Z,90.31
2023-01-09T10:03:50.521Z,90.96
2023-01-09T10:06:30.575Z,88.43
2023-01-09T10:09:24.869Z,84.53
2023-01-09T10:12:10.812Z,77.85
2023-01-09T10:14:38.879Z,76.63
2023-01-09T10:17:25.847Z,79.55
2023-01-09T10:20:17.437Z,81.09
2023-01-09T10:22:44.281Z,81.04
2023-01-09T10:25:35.903Z,79.95
2023-01-09T10:28:07.316Z,79.24
2023-01-09T10:30:48.325Z,77.07
2023-01-09T10:33:21.088Z,73.54
2023-01-09T10:35:58.607Z,66.50
2023-01-09T10:38:41.501Z,61.99
2023-01-09T10:41:30.892Z,62.06
2023-01-09T10:44:42.590Z,64.40
2023-01-09T10:47:21.116Z,67.64
2023-01-09T10:49:52.648Z,68.58
2023-01-09T10:52:34.766Z,71.11
2023-01-09T10:55:19.352Z,69.17
2023-01-09T10:57:53.427Z,62.83
2023-01-09T11:00:23.970Z,53.22
2023-01-09T11:02:54.940Z,46.23
2023-01-09T11:05:32.570Z,40.43
2023-01-09T11:08:34.577Z,36.76
2023-01-09T11:11:03.436Z,36.74
2023-01-09T11:13:38.306Z,33.28
2023-01-09T11:16:16.307Z,34.63
2023-01-09T11:18:49.238Z,35.13
2023-01-09T11:21:36.181Z,38.13
2023-01-09T11:24:24.045Z,44.66
2023-01-09T11:26:54.795Z,50.75
2023-01-09T11:29:24.689Z,51.58
2023-01-09T11:32:02.172Z,52.85
2023-01-09T11:34:36.013Z,52.90
2023-01-09T11:37:11.939Z,51.02
2023-01-09T11:39:48.033Z,44.31
2023-01-09T11:42:46.586Z,44.01
2023-01-09T11:45:34.333Z,47.03
2023-01-09T11:48:04.427Z,49.30
2023-01-09T11:50:34.136Z,54.29
2023-01-09T11:53:51.040Z,49.64
2023-01-09T11:56:20.943Z,48.14
2023-01-09T11:58:47.920Z,51.81
2023-01-09T12:02:05.661Z,48.61
2023-01-09T12:04:44.297Z,43.40
2023-01-09T12:07:54.240Z,47.06
2023-01-09T12:10:33.165Z,54.82
2023-01-09T12:13:23.783Z,56.36
2023-01-09T12:16:50.971Z,61.43
2023-01-09T12:19:42.466Z,64.96
2023-01-09T12:22:44.358Z,66.82
2023-01-09T12:25:35.516Z,66.59
2023-01-09T12:28:36.468Z,68.62
2023-01-09T12:31:31.489Z,70.50
2023-01-09T12:34:01.641Z,70.11
2023-01-09T12:37:04.890Z,72.38
2023-01-09T12:40:17.088Z,72.78
2023-01-09T12:43:13.326Z,74.14
2023-01-09T12:46:13.604Z,74.40
2023-01-09T12:49:11.171Z,75.36
2023-01-09T12:51:48.729Z,74.07
2023-01-09T12:54:38.840Z,76.30
2023-01-09T12:57:27.092Z,77.39
2023-01-09T13:00:02.986Z,75.23
2023-01-09T13:02:46.351Z,70.29
2023-01-09T13:05:31.978Z,60.73
2023-01-09T13:08:38.066Z,62.93
2023-01-09T13:11:51.931Z,68.97
2023-01-09T13:14:32.690Z,70.20
2023-01-09T13:17:02.691Z,71.46
2023-01-09T13:19:37.455Z,71.96
2023-01-09T13:22:06.242Z,72.48
2023-01-09T13:24:50.615Z,74.73
2023-01-09T13:27:23.473Z,73.85
2023-01-09T13:30:17.835Z,74.11
2023-01-09T13:33:07.209Z,75.36
2023-01-09T13:35:34.541Z,78.10
2023-01-09T13:38:01.897Z,77.71
2023-01-09T13:40:30.326Z,79.54
2023-01-09T13:42:59.992Z,79.82
2023-01-09T13:45:33.431Z,79.85
2023-01-09T13:48:10.820Z,79.63
2023-01-09T13:50:39.015Z,80.11
2023-01-09T13:53:18.172Z,80.79
2023-01-09T13:56:05.387Z,80.25
2023-01-09T13:58:38.184Z,80.32
2023-01-09T14:01:25.108Z,80.63
2023-01-09T14:04:14.647Z,81.69
2023-01-09T14:06:44.891Z,82.40
2023-01-09T14:09:22.856Z,82.38
2023-01-09T14:12:08.489Z,82.53
2023-01-09T14:14:35.693Z,83.55
2023-01-09T14:17:15.420Z,84.16
2023-01-09T14:19:45.387Z,85.02
2023-01-09T14:22:27.149Z,84.02
2023-01-09T14:24:56.613Z,84.68
2023-01-09T14:27:54.691Z,86.15
2023-01-09T14:30:27.594Z,86.10
2023-01-09T14:33:18.993Z,86.61
2023-01-09T14:35:50.449Z,88.07
2023-01-09T14:38:32.755Z,88.02
2023-01-09T14:41:58.276Z,88.75
2023-01-09T14:44:45.542Z,88.57
2023-01-09T14:47:33.739Z,89.05
2023-01-09T14:50:16.132Z,88.26
2023-01-09T14:52:53.369Z,87.80
2023-01-09T14:55:46.261Z,88.12
2023-01-09T14:58:32.963Z,88.35
2023-01-09T15:01:22.809Z,89.64
2023-01-09T15:03:58.951Z,88.88
2023-01-09T15:06:29.837Z,88.74
2023-01-09T15:09:29.104Z,88.56
2023-01-09T15:12:03.831Z,88.77
2023-01-09T15:14:45.581Z,89.48
2023-01-09T15:17:30.681Z,88.79
2023-01-09T15:20:00.795Z,89.91
2023-01-09T15:22:35.776Z,90.65
2023-01-09T15:25:39.892Z,91.68
2023-01-09T15:28:32.514Z,90.85
2023-01-09T15:31:12.048Z,90.86
2023-01-09T15:33:40.748Z,89.59
2023-01-09T15:36:16.383Z,89.00
2023-01-09T15:38:44.302Z,88.47
2023-01-09T15:41:37.130Z,90.55
2023-01-09T15:44:07.337Z,92.69
2023-01-09T15:46:34.474Z,95.21
2023-01-09T15:49:04.591Z,94.84
2023-01-09T15:51:33.048Z,94.17
2023-01-09T15:54:03.756Z,93.26
2023-01-09T15:56:30.785Z,92.72
2023-01-09T15:59:01.684Z,92.89
2023-01-09T16:01:38.610Z,94.86
2023-01-09T16:04:17.264Z,94.28
2023-01-09T16:06:49.153Z,94.90
2023-01-09T16:09:31.110Z,95.19
2023-01-09T16:12:02.744Z,95.22
2023-01-09T16:14:38.824Z,94.49
2023-01-09T16:17:17.826Z,93.55
2023-01-09T16:19:52.013Z,94.11
2023-01-09T16:22:53.468Z,94.57
2023-01-09T16:25:38.940Z,94.96
2023-01-09T16:28:26.832Z,96.09
2023-01-09T16:31:27.054Z,97.52
2023-01-09T16:34:06.383Z,96.94
2023-01-09T16:36:37.419Z,97.97
2023-01-09T16:39:04.731Z,98.69
2023-01-09T16:41:52.576Z,97.33
2023-01-09T16:44:21.767Z,98.47
2023-01-09T16:46:50.772Z,97.93
2023-01-09T16:49:27.395Z,97.23
2023-01-09T16:51:54.735Z,97.67
2023-01-09T16:54:24.830Z,97.40
2023-01-09T16:56:57.520Z,98.71
2023-01-09T16:59:30.227Z,97.93
2023-01-09T17:02:00.359Z,97.62
2023-01-09T17:04:28.210Z,98.20
2023-01-09T17:06:55.105Z,99.14
2023-01-09T17:09:27.380Z,99.96
2023-01-09T17:11:57.071Z,99.09
2023-01-09T17:14:28.674Z,98.25
2023-01-09T17:16:55.634Z,99.46
2023-01-09T17:19:23.573Z,100.00
2023-01-09T17:21:50.472Z,99.39
2023-01-09T17:24:40.556Z,99.28
2023-01-09T17:27:28.851Z,100.00
2023-01-09T17:29:55.727Z,100.00
2023-01-09T17:32:24.774Z,100.00
2023-01-09T17:34:53.765Z,100.00
2023-01-09T17:37:23.198Z,100.00
2023-01-09T17:39:50.113Z,99.70
2023-01-09T17:42:17.001Z,99.06
2023-01-09T17:44:46.987Z,98.90
2023-01-09T17:47:15.478Z,97.54
2023-01-09T17:49:47.283Z,97.00
2023-01-09T17:52:14.331Z,97.41
2023-01-09T17:54:41.204Z,97.44
2023-01-09T17:57:12.121Z,97.07
2023-01-09T17:59:39.005Z,95.94
2023-01-09T18:02:08.528Z,96.41
2023-01-09T18:04:39.099Z,96.90
2023-01-09T18:07:12.659Z,96.26
2023-01-09T18:09:39.508Z,95.55
2023-01-09T18:12:09.474Z,96.49
2023-01-09T18:14:38.078Z,96.41
2023-01-09T18:17:09.179Z,95.30
2023-01-09T18:19:36.307Z,95.07
2023-01-09T18:22:03.908Z,94.69
2023-01-09T18:24:30.868Z,94.92
2023-01-09T18:27:00.276Z,95.10
2023-01-09T18:29:27.152Z,95.08
2023-01-09T18:31:54.121Z,95.06
2023-01-09T18:34:23.630Z,94.93
2023-01-09T18:36:53.160Z,95.74
2023-01-09T18:39:20.319Z,94.60
2023-01-09T18:41:47.191Z,95.14
2023-01-09T18:44:14.112Z,94.75
2023-01-09T18:46:42.127Z,95.02
2023-01-09T18:49:09.658Z,94.55
2023-01-09T18:51:36.991Z,94.85
2023-01-09T18:54:04.751Z,94.93
2023-01-09T18:56:31.685Z,94.12
2023-01-09T18:58:58.971Z,94.24
2023-01-09T19:01:28.713Z,93.81
2023-01-09T19:03:56.848Z,94.34
2023-01-09T19:06:24.114Z,94.07
2023-01-09T19:08:51.265Z,94.78
2023-01-09T19:11:18.609Z,95.02
2023-01-09T19:13:47.563Z,96.55
2023-01-09T19:16:14.602Z,95.36
2023-01-09T19:18:42.823Z,95.20
2023-01-09T19:21:17.100Z,95.12
2023-01-09T19:23:45.430Z,94.51
2023-01-09T19:26:20.655Z,95.29
2023-01-09T19:28:50.341Z,93.64
2023-01-09T19:31:24.433Z,93.17
2023-01-09T19:33:55.081Z,92.53
2023-01-09T19:36:26.121Z,93.97
2023-01-09T19:39:01.329Z,94.07
2023-01-09T19:41:29.657Z,93.67
2023-01-09T19:43:57.203Z,93.92
2023-01-09T19:46:25.686Z,93.43
2023-01-09T19:48:58.362Z,93.70
2023-01-09T19:51:25.864Z,94.63
2023-01-09T19:56:31.885Z,94.73
2023-01-09T19:59:02.144Z,94.61
2023-01-09T20:01:32.997Z,93.97
2023-01-09T20:04:04.052Z,93.17
2023-01-09T20:06:31.854Z,93.53
2023-01-09T20:09:03.481Z,93.06
2023-01-09T20:11:33.352Z,93.51
2023-01-09T20:14:01.524Z,93.87
2023-01-09T20:16:32.857Z,94.29
2023-01-09T20:19:08.750Z,93.13
2023-01-09T20:21:36.369Z,94.26
2023-01-09T20:24:06.504Z,94.41
2023-01-09T20:26:36.143Z,93.90
2023-01-09T20:29:04.084Z,93.93
2023-01-09T20:31:32.532Z,93.24
2023-01-09T20:34:00.138Z,93.29
2023-01-09T20:36:30.142Z,93.46
2023-01-09T20:39:00.210Z,94.63
2023-01-09T20:41:29.446Z,94.57
2023-01-09T20:44:03.471Z,93.94
2023-01-09T20:46:42.545Z,93.84
2023-01-09T20:49:12.890Z,93.70
2023-01-09T20:51:46.758Z,94.14
2023-01-09T20:54:17.687Z,94.02
2023-01-09T20:56:47.174Z,93.52
2023-01-09T20:59:20.182Z,93.42
2023-01-09T21:01:47.211Z,93.46
2023-01-09T21:04:14.576Z,93.68
2023-01-09T21:06:42.626Z,93.86
2023-01-09T21:09:10.115Z,94.00
2023-01-09T21:11:40.127Z,93.97
2023-01-09T21:14:10.373Z,93.42
2023-01-09T21:16:37.335Z,92.98
2023-01-09T21:19:04.327Z,93.39
2023-01-09T21:21:31.589Z,93.57
2023-01-09T21:24:00.616Z,93.41
2023-01-09T21:26:31.506Z,93.43
2023-01-09T21:29:01.523Z,93.12
2023-01-09T21:31:34.753Z,93.48
2023-01-09T21:34:08.153Z,93.54
2023-01-09T21:36:36.036Z,93.06
2023-01-09T21:39:08.033Z,93.12
2023-01-09T21:41:53.853Z,92.13
2023-01-09T21:44:39.613Z,92.99
2023-01-09T21:47:06.695Z,93.20
2023-01-09T21:49:35.198Z,92.68
2023-01-09T21:52:08.019Z,93.18
2023-01-09T21:54:35.099Z,93.13
2023-01-09T21:57:04.469Z,92.90
2023-01-09T21:59:34.852Z,93.47
2023-01-09T22:02:04.618Z,94.74
2023-01-09T22:04:32.382Z,95.54
2023-01-09T22:06:59.431Z,94.98
2023-01-09T22:09:28.847Z,95.96
2023-01-09T22:11:58.389Z,95.93
2023-01-09T22:14:27.887Z,97.18
2023-01-09T22:16:59.491Z,96.44
2023-01-09T22:19:28.123Z,95.89
2023-01-09T22:21:55.234Z,95.59
2023-01-09T22:24:22.369Z,95.11
2023-01-09T22:26:51.670Z,94.41
2023-01-09T22:29:21.864Z,96.64
2023-01-09T22:31:48.999Z,97.10
2023-01-09T22:34:21.597Z,95.96
2023-01-09T22:36:53.147Z,95.59
2023-01-09T22:39:22.548Z,96.27
2023-01-09T22:41:55.089Z,95.72
2023-01-09T22:44:24.520Z,94.41
2023-01-09T22:46:53.503Z,95.33
2023-01-09T22:49:20.369Z,94.60
2023-01-09T22:51:47.240Z,93.89
2023-01-09T22:54:16.792Z,94.95
2023-01-09T22:56:46.812Z,95.54
2023-01-09T22:59:15.767Z,96.10
2023-01-09T23:01:47.113Z,94.21
2023-01-09T23:04:16.732Z,95.05
2023-01-09T23:06:46.144Z,93.33
2023-01-09T23:09:13.052Z,92.81
2023-01-09T23:12:00.788Z,93.57
2023-01-09T23:14:28.932Z,93.10
2023-01-09T23:16:56.528Z,93.86
2023-01-09T23:19:23.466Z,94.71
2023-01-09T23:21:52.894Z,95.48
2023-01-09T23:24:19.979Z,94.14
2023-01-09T23:26:49.903Z,92.55
2023-01-09T23:29:16.817Z,92.79
2023-01-09T23:31:44.052Z,91.82
2023-01-09T23:34:16.996Z,92.37
2023-01-09T23:36:44.556Z,92.88
2023-01-09T23:39:11.760Z,92.58
2023-01-09T23:41:57.540Z,93.22
2023-01-09T23:44:24.659Z,93.79
2023-01-09T23:46:51.896Z,93.68
2023-01-09T23:49:19.417Z,93.85
2023-01-09T23:51:48.595Z,94.58
2023-01-09T23:54:16.593Z,94.21
2023-01-09T23:56:43.483Z,94.30
2023-01-09T23:59:13.874Z,93.78
